sensor_id;sensor_type;location;lat;lon;timestamp;P1;durP1;ratioP1;P2;durP2;ratioP2
25391;SDS011;13329;48.402;11.718;2023-02-26T00:01:50;2.42;;;1.05;;
25391;SDS011;13329;48.402;11.718;2023-02-26T00:04:15;2.30;;;1.20;;
25391;SDS011;13329;48.402;11.718;2023-02-26T00:06:41;1.70;;;1.17;;
25391;SDS011;13329;48.402;11.718;2023-02-26T00:09:20;1.75;;;1.20;;
25391;SDS011;13329;48.402;11.718;2023-02-26T00:11:45;1.25;;;1.10;;
25391;SDS011;13329;48.402;11.718;2023-02-26T00:14:11;1.25;;;1.13;;
25391;SDS011;13329;48.402;11.718;2023-02-26T00:16:37;5.57;;;1.25;;
25391;SDS011;13329;48.402;11.718;2023-02-26T00:19:03;2.22;;;1.00;;
25391;SDS011;13329;48.402;11.718;2023-02-26T00:21:29;1.42;;;1.20;;
25391;SDS011;13329;48.402;11.718;2023-02-26T00:23:54;2.28;;;1.30;;
25391;SDS011;13329;48.402;11.718;2023-02-26T00:26:19;1.47;;;1.00;;
25391;SDS011;13329;48.402;11.718;2023-02-26T00:28:45;0.93;;;0.85;;
25391;SDS011;13329;48.402;11.718;2023-02-26T00:31:10;1.02;;;0.80;;
25391;SDS011;13329;48.402;11.718;2023-02-26T00:33:36;2.35;;;1.17;;
25391;SDS011;13329;48.402;11.718;2023-02-26T00:36:03;4.90;;;1.40;;
25391;SDS011;13329;48.402;11.718;2023-02-26T00:38:32;0.90;;;0.70;;
25391;SDS011;13329;48.402;11.718;2023-02-26T00:40:58;2.45;;;1.35;;
25391;SDS011;13329;48.402;11.718;2023-02-26T00:43:24;1.88;;;0.95;;
25391;SDS011;13329;48.402;11.718;2023-02-26T00:48:58;1.80;;;1.10;;
25391;SDS011;13329;48.402;11.718;2023-02-26T00:51:07;2.05;;;1.10;;
25391;SDS011;13329;48.402;11.718;2023-02-26T00:53:38;1.02;;;0.90;;
25391;SDS011;13329;48.402;11.718;2023-02-26T00:56:05;1.38;;;0.85;;
25391;SDS011;13329;48.402;11.718;2023-02-26T00:58:30;1.73;;;1.20;;
25391;SDS011;13329;48.402;11.718;2023-02-26T01:00:55;1.37;;;0.87;;
25391;SDS011;13329;48.402;11.718;2023-02-26T01:03:20;1.20;;;0.90;;
25391;SDS011;13329;48.402;11.718;2023-02-26T01:05:45;1.13;;;0.88;;
25391;SDS011;13329;48.402;11.718;2023-02-26T01:10:39;1.50;;;1.00;;
25391;SDS011;13329;48.402;11.718;2023-02-26T01:13:05;1.67;;;1.00;;
25391;SDS011;13329;48.402;11.718;2023-02-26T01:15:31;1.17;;;1.00;;
25391;SDS011;13329;48.402;11.718;2023-02-26T01:20:22;1.17;;;0.90;;
25391;SDS011;13329;48.402;11.718;2023-02-26T01:22:56;0.88;;;0.73;;
25391;SDS011;13329;48.402;11.718;2023-02-26T01:25:28;1.10;;;0.90;;
25391;SDS011;13329;48.402;11.718;2023-02-26T01:27:54;1.00;;;0.82;;
25391;SDS011;13329;48.402;11.718;2023-02-26T01:30:21;2.13;;;0.77;;
25391;SDS011;13329;48.402;11.718;2023-02-26T01:35:35;1.77;;;0.70;;
25391;SDS011;13329;48.402;11.718;2023-02-26T01:38:02;0.68;;;0.68;;
25391;SDS011;13329;48.402;11.718;2023-02-26T01:40:40;3.63;;;0.60;;
25391;SDS011;13329;48.402;11.718;2023-02-26T01:43:09;0.90;;;0.68;;
25391;SDS011;13329;48.402;11.718;2023-02-26T01:45:57;0.70;;;0.70;;
25391;SDS011;13329;48.402;11.718;2023-02-26T01:48:30;3.67;;;0.90;;
25391;SDS011;13329;48.402;11.718;2023-02-26T01:50:56;1.20;;;0.77;;
25391;SDS011;13329;48.402;11.718;2023-02-26T01:53:22;0.73;;;0.60;;
25391;SDS011;13329;48.402;11.718;2023-02-26T01:55:50;1.70;;;1.00;;
25391;SDS011;13329;48.402;11.718;2023-02-26T01:58:16;0.80;;;0.73;;
25391;SDS011;13329;48.402;11.718;2023-02-26T02:00:41;0.73;;;0.60;;
25391;SDS011;13329;48.402;11.718;2023-02-26T02:03:07;3.50;;;0.80;;
25391;SDS011;13329;48.402;11.718;2023-02-26T02:06:19;1.48;;;0.85;;
25391;SDS011;13329;48.402;11.718;2023-02-26T02:08:18;1.38;;;0.82;;
25391;SDS011;13329;48.402;11.718;2023-02-26T02:10:44;0.65;;;0.60;;
25391;SDS011;13329;48.402;11.718;2023-02-26T02:15:45;0.82;;;0.60;;
25391;SDS011;13329;48.402;11.718;2023-02-26T02:23:15;0.90;;;0.80;;
25391;SDS011;13329;48.402;11.718;2023-02-26T02:25:50;0.90;;;0.80;;
25391;SDS011;13329;48.402;11.718;2023-02-26T02:28:23;0.80;;;0.65;;
25391;SDS011;13329;48.402;11.718;2023-02-26T02:33:33;1.50;;;0.60;;
25391;SDS011;13329;48.402;11.718;2023-02-26T02:36:03;1.88;;;0.90;;
25391;SDS011;13329;48.402;11.718;2023-02-26T02:38:32;0.75;;;0.70;;
25391;SDS011;13329;48.402;11.718;2023-02-26T02:41:02;1.25;;;0.70;;
25391;SDS011;13329;48.402;11.718;2023-02-26T02:43:30;0.85;;;0.70;;
25391;SDS011;13329;48.402;11.718;2023-02-26T02:45:59;1.00;;;0.90;;
25391;SDS011;13329;48.402;11.718;2023-02-26T02:48:27;1.02;;;0.90;;
25391;SDS011;13329;48.402;11.718;2023-02-26T02:50:55;1.90;;;1.00;;
25391;SDS011;13329;48.402;11.718;2023-02-26T02:53:22;1.17;;;0.93;;
25391;SDS011;13329;48.402;11.718;2023-02-26T02:56:11;1.42;;;0.80;;
25391;SDS011;13329;48.402;11.718;2023-02-26T02:58:35;1.13;;;0.70;;
25391;SDS011;13329;48.402;11.718;2023-02-26T03:01:02;1.75;;;1.10;;
25391;SDS011;13329;48.402;11.718;2023-02-26T03:03:36;0.70;;;0.70;;
25391;SDS011;13329;48.402;11.718;2023-02-26T03:06:03;0.80;;;0.80;;
25391;SDS011;13329;48.402;11.718;2023-02-26T03:08:30;1.67;;;0.82;;
25391;SDS011;13329;48.402;11.718;2023-02-26T03:10:58;0.80;;;0.70;;
25391;SDS011;13329;48.402;11.718;2023-02-26T03:13:24;1.00;;;0.90;;
25391;SDS011;13329;48.402;11.718;2023-02-26T03:16:00;3.50;;;1.00;;
25391;SDS011;13329;48.402;11.718;2023-02-26T03:18:53;1.10;;;0.90;;
25391;SDS011;13329;48.402;11.718;2023-02-26T03:21:21;1.90;;;0.90;;
25391;SDS011;13329;48.402;11.718;2023-02-26T03:23:53;0.70;;;0.70;;
25391;SDS011;13329;48.402;11.718;2023-02-26T03:26:43;1.75;;;0.77;;
25391;SDS011;13329;48.402;11.718;2023-02-26T03:29:25;1.45;;;0.85;;
25391;SDS011;13329;48.402;11.718;2023-02-26T03:31:55;2.45;;;1.00;;
25391;SDS011;13329;48.402;11.718;2023-02-26T03:40:10;1.83;;;1.00;;
25391;SDS011;13329;48.402;11.718;2023-02-26T03:42:42;0.80;;;0.77;;
25391;SDS011;13329;48.402;11.718;2023-02-26T03:45:12;5.78;;;0.70;;
25391;SDS011;13329;48.402;11.718;2023-02-26T03:47:39;1.17;;;1.08;;
25391;SDS011;13329;48.402;11.718;2023-02-26T03:52:31;2.53;;;0.80;;
25391;SDS011;13329;48.402;11.718;2023-02-26T03:55:00;1.33;;;0.93;;
25391;SDS011;13329;48.402;11.718;2023-02-26T03:57:27;1.55;;;0.90;;
25391;SDS011;13329;48.402;11.718;2023-02-26T03:59:52;0.70;;;0.70;;
25391;SDS011;13329;48.402;11.718;2023-02-26T04:02:19;2.95;;;0.98;;
25391;SDS011;13329;48.402;11.718;2023-02-26T04:04:48;2.35;;;0.98;;
25391;SDS011;13329;48.402;11.718;2023-02-26T04:07:15;1.45;;;0.70;;
25391;SDS011;13329;48.402;11.718;2023-02-26T04:09:41;1.20;;;0.80;;
25391;SDS011;13329;48.402;11.718;2023-02-26T04:12:07;2.92;;;0.75;;
25391;SDS011;13329;48.402;11.718;2023-02-26T04:14:32;1.50;;;1.00;;
25391;SDS011;13329;48.402;11.718;2023-02-26T04:16:57;3.35;;;1.20;;
25391;SDS011;13329;48.402;11.718;2023-02-26T04:19:22;2.90;;;1.47;;
25391;SDS011;13329;48.402;11.718;2023-02-26T04:21:47;1.17;;;1.00;;
25391;SDS011;13329;48.402;11.718;2023-02-26T04:24:13;2.00;;;1.03;;
25391;SDS011;13329;48.402;11.718;2023-02-26T04:26:38;1.47;;;0.97;;
25391;SDS011;13329;48.402;11.718;2023-02-26T04:29:03;3.30;;;0.97;;
25391;SDS011;13329;48.402;11.718;2023-02-26T04:31:28;1.63;;;0.90;;
25391;SDS011;13329;48.402;11.718;2023-02-26T04:33:53;0.87;;;0.83;;
25391;SDS011;13329;48.402;11.718;2023-02-26T04:36:19;2.17;;;1.00;;
25391;SDS011;13329;48.402;11.718;2023-02-26T04:38:44;1.00;;;0.80;;
25391;SDS011;13329;48.402;11.718;2023-02-26T04:41:09;3.03;;;1.00;;
25391;SDS011;13329;48.402;11.718;2023-02-26T04:43:34;1.33;;;0.73;;
25391;SDS011;13329;48.402;11.718;2023-02-26T04:45:59;1.38;;;0.95;;
25391;SDS011;13329;48.402;11.718;2023-02-26T04:48:24;1.10;;;1.00;;
25391;SDS011;13329;48.402;11.718;2023-02-26T04:50:50;1.20;;;1.00;;
25391;SDS011;13329;48.402;11.718;2023-02-26T04:53:15;4.70;;;1.10;;
25391;SDS011;13329;48.402;11.718;2023-02-26T04:55:40;1.38;;;1.00;;
25391;SDS011;13329;48.402;11.718;2023-02-26T04:58:06;1.05;;;0.80;;
25391;SDS011;13329;48.402;11.718;2023-02-26T05:00:32;3.17;;;1.00;;
25391;SDS011;13329;48.402;11.718;2023-02-26T05:02:57;1.85;;;0.90;;
25391;SDS011;13329;48.402;11.718;2023-02-26T05:05:22;5.20;;;1.40;;
25391;SDS011;13329;48.402;11.718;2023-02-26T05:07:47;2.45;;;1.20;;
25391;SDS011;13329;48.402;11.718;2023-02-26T05:10:13;2.30;;;1.03;;
25391;SDS011;13329;48.402;11.718;2023-02-26T05:12:38;2.13;;;0.95;;
25391;SDS011;13329;48.402;11.718;2023-02-26T05:15:03;2.53;;;1.17;;
25391;SDS011;13329;48.402;11.718;2023-02-26T05:17:28;2.20;;;0.90;;
25391;SDS011;13329;48.402;11.718;2023-02-26T05:19:54;2.30;;;0.87;;
25391;SDS011;13329;48.402;11.718;2023-02-26T05:22:19;0.90;;;0.83;;
25391;SDS011;13329;48.402;11.718;2023-02-26T05:24:44;4.23;;;1.10;;
25391;SDS011;13329;48.402;11.718;2023-02-26T05:27:10;1.23;;;1.05;;
25391;SDS011;13329;48.402;11.718;2023-02-26T05:29:35;15.53;;;1.63;;
25391;SDS011;13329;48.402;11.718;2023-02-26T05:32:00;1.17;;;1.07;;
25391;SDS011;13329;48.402;11.718;2023-02-26T05:34:25;1.23;;;1.00;;
25391;SDS011;13329;48.402;11.718;2023-02-26T05:36:51;1.83;;;1.07;;
25391;SDS011;13329;48.402;11.718;2023-02-26T05:39:16;5.20;;;1.30;;
25391;SDS011;13329;48.402;11.718;2023-02-26T05:41:41;5.87;;;1.27;;
25391;SDS011;13329;48.402;11.718;2023-02-26T05:44:06;0.90;;;0.90;;
25391;SDS011;13329;48.402;11.718;2023-02-26T05:46:33;6.80;;;1.17;;
25391;SDS011;13329;48.402;11.718;2023-02-26T05:48:58;3.30;;;1.38;;
25391;SDS011;13329;48.402;11.718;2023-02-26T05:51:23;0.80;;;0.80;;
25391;SDS011;13329;48.402;11.718;2023-02-26T05:53:48;1.10;;;0.97;;
25391;SDS011;13329;48.402;11.718;2023-02-26T05:56:13;3.50;;;1.43;;
25391;SDS011;13329;48.402;11.718;2023-02-26T05:58:38;4.47;;;1.10;;
25391;SDS011;13329;48.402;11.718;2023-02-26T06:01:04;2.23;;;0.97;;
25391;SDS011;13329;48.402;11.718;2023-02-26T06:03:29;1.92;;;1.30;;
25391;SDS011;13329;48.402;11.718;2023-02-26T06:05:54;1.93;;;1.20;;
25391;SDS011;13329;48.402;11.718;2023-02-26T06:08:19;1.77;;;1.20;;
25391;SDS011;13329;48.402;11.718;2023-02-26T06:10:44;1.37;;;0.93;;
25391;SDS011;13329;48.402;11.718;2023-02-26T06:13:10;1.00;;;1.00;;
25391;SDS011;13329;48.402;11.718;2023-02-26T06:15:35;0.90;;;0.90;;
25391;SDS011;13329;48.402;11.718;2023-02-26T06:18:00;2.20;;;1.33;;
25391;SDS011;13329;48.402;11.718;2023-02-26T06:20:25;1.05;;;0.95;;
25391;SDS011;13329;48.402;11.718;2023-02-26T06:22:51;2.42;;;1.27;;
25391;SDS011;13329;48.402;11.718;2023-02-26T06:25:17;1.52;;;1.08;;
25391;SDS011;13329;48.402;11.718;2023-02-26T06:27:42;2.80;;;1.67;;
25391;SDS011;13329;48.402;11.718;2023-02-26T06:30:07;0.90;;;0.70;;
25391;SDS011;13329;48.402;11.718;2023-02-26T06:32:33;5.22;;;1.15;;
25391;SDS011;13329;48.402;11.718;2023-02-26T06:34:58;2.33;;;1.10;;
25391;SDS011;13329;48.402;11.718;2023-02-26T06:37:23;1.40;;;1.10;;
25391;SDS011;13329;48.402;11.718;2023-02-26T06:39:48;2.05;;;1.25;;
25391;SDS011;13329;48.402;11.718;2023-02-26T06:42:13;1.25;;;1.15;;
25391;SDS011;13329;48.402;11.718;2023-02-26T06:44:38;3.40;;;1.33;;
25391;SDS011;13329;48.402;11.718;2023-02-26T06:47:04;1.53;;;1.07;;
25391;SDS011;13329;48.402;11.718;2023-02-26T06:49:29;8.50;;;1.40;;
25391;SDS011;13329;48.402;11.718;2023-02-26T06:51:54;6.57;;;1.50;;
25391;SDS011;13329;48.402;11.718;2023-02-26T06:54:19;2.13;;;1.13;;
25391;SDS011;13329;48.402;11.718;2023-02-26T06:56:44;1.40;;;1.00;;
25391;SDS011;13329;48.402;11.718;2023-02-26T06:59:10;1.10;;;1.00;;
25391;SDS011;13329;48.402;11.718;2023-02-26T07:01:35;1.50;;;1.40;;
25391;SDS011;13329;48.402;11.718;2023-02-26T07:04:00;1.90;;;1.53;;
25391;SDS011;13329;48.402;11.718;2023-02-26T07:06:25;4.13;;;0.80;;
25391;SDS011;13329;48.402;11.718;2023-02-26T07:08:50;5.28;;;1.15;;
25391;SDS011;13329;48.402;11.718;2023-02-26T07:11:16;3.80;;;1.30;;
25391;SDS011;13329;48.402;11.718;2023-02-26T07:13:42;3.17;;;1.20;;
25391;SDS011;13329;48.402;11.718;2023-02-26T07:16:07;1.90;;;1.20;;
25391;SDS011;13329;48.402;11.718;2023-02-26T07:18:33;5.30;;;1.00;;
25391;SDS011;13329;48.402;11.718;2023-02-26T07:20:58;2.15;;;1.33;;
25391;SDS011;13329;48.402;11.718;2023-02-26T07:23:23;1.50;;;1.10;;
25391;SDS011;13329;48.402;11.718;2023-02-26T07:25:48;7.73;;;1.30;;
25391;SDS011;13329;48.402;11.718;2023-02-26T07:28:14;1.40;;;0.95;;
25391;SDS011;13329;48.402;11.718;2023-02-26T07:30:39;1.83;;;1.13;;
25391;SDS011;13329;48.402;11.718;2023-02-26T07:33:06;1.50;;;1.00;;
25391;SDS011;13329;48.402;11.718;2023-02-26T07:35:31;0.60;;;0.60;;
25391;SDS011;13329;48.402;11.718;2023-02-26T07:37:56;0.93;;;0.83;;
25391;SDS011;13329;48.402;11.718;2023-02-26T07:40:21;1.03;;;0.87;;
25391;SDS011;13329;48.402;11.718;2023-02-26T07:42:46;1.70;;;1.40;;
25391;SDS011;13329;48.402;11.718;2023-02-26T07:45:11;2.33;;;1.30;;
25391;SDS011;13329;48.402;11.718;2023-02-26T07:47:37;1.43;;;1.10;;
25391;SDS011;13329;48.402;11.718;2023-02-26T07:50:02;2.17;;;1.10;;
25391;SDS011;13329;48.402;11.718;2023-02-26T07:52:28;3.10;;;1.20;;
25391;SDS011;13329;48.402;11.718;2023-02-26T07:54:53;1.60;;;0.93;;
25391;SDS011;13329;48.402;11.718;2023-02-26T07:57:18;1.20;;;1.00;;
25391;SDS011;13329;48.402;11.718;2023-02-26T07:59:43;0.98;;;0.90;;
25391;SDS011;13329;48.402;11.718;2023-02-26T08:02:09;1.00;;;0.90;;
25391;SDS011;13329;48.402;11.718;2023-02-26T08:04:34;2.05;;;1.10;;
25391;SDS011;13329;48.402;11.718;2023-02-26T08:06:59;1.23;;;0.77;;
25391;SDS011;13329;48.402;11.718;2023-02-26T08:09:25;1.98;;;1.00;;
25391;SDS011;13329;48.402;11.718;2023-02-26T08:11:50;1.23;;;1.00;;
25391;SDS011;13329;48.402;11.718;2023-02-26T08:14:15;1.75;;;1.10;;
25391;SDS011;13329;48.402;11.718;2023-02-26T08:16:41;2.80;;;1.40;;
25391;SDS011;13329;48.402;11.718;2023-02-26T08:19:06;1.27;;;0.90;;
25391;SDS011;13329;48.402;11.718;2023-02-26T08:21:31;0.90;;;0.90;;
25391;SDS011;13329;48.402;11.718;2023-02-26T08:23:56;3.23;;;1.07;;
25391;SDS011;13329;48.402;11.718;2023-02-26T08:26:21;1.13;;;1.00;;
25391;SDS011;13329;48.402;11.718;2023-02-26T08:28:47;1.40;;;1.10;;
25391;SDS011;13329;48.402;11.718;2023-02-26T08:31:12;1.13;;;0.90;;
25391;SDS011;13329;48.402;11.718;2023-02-26T08:33:38;2.28;;;0.85;;
25391;SDS011;13329;48.402;11.718;2023-02-26T08:36:03;1.70;;;1.02;;
25391;SDS011;13329;48.402;11.718;2023-02-26T08:38:29;3.13;;;1.40;;
25391;SDS011;13329;48.402;11.718;2023-02-26T08:40:54;1.88;;;1.15;;
25391;SDS011;13329;48.402;11.718;2023-02-26T08:43:19;3.47;;;1.23;;
25391;SDS011;13329;48.402;11.718;2023-02-26T08:45:45;1.75;;;1.40;;
25391;SDS011;13329;48.402;11.718;2023-02-26T08:48:10;1.73;;;1.23;;
25391;SDS011;13329;48.402;11.718;2023-02-26T08:50:35;1.83;;;1.25;;
25391;SDS011;13329;48.402;11.718;2023-02-26T08:53:00;1.60;;;1.03;;
25391;SDS011;13329;48.402;11.718;2023-02-26T08:55:26;1.83;;;1.30;;
25391;SDS011;13329;48.402;11.718;2023-02-26T08:57:51;0.90;;;0.90;;
25391;SDS011;13329;48.402;11.718;2023-02-26T09:00:17;1.77;;;1.00;;
25391;SDS011;13329;48.402;11.718;2023-02-26T09:02:43;1.50;;;1.30;;
25391;SDS011;13329;48.402;11.718;2023-02-26T09:05:08;1.83;;;1.40;;
25391;SDS011;13329;48.402;11.718;2023-02-26T09:07:33;1.80;;;1.20;;
25391;SDS011;13329;48.402;11.718;2023-02-26T09:09:59;3.37;;;1.70;;
25391;SDS011;13329;48.402;11.718;2023-02-26T09:12:24;1.57;;;1.40;;
25391;SDS011;13329;48.402;11.718;2023-02-26T09:14:49;1.50;;;1.20;;
25391;SDS011;13329;48.402;11.718;2023-02-26T09:17:14;2.60;;;1.00;;
25391;SDS011;13329;48.402;11.718;2023-02-26T09:19:39;1.45;;;1.20;;
25391;SDS011;13329;48.402;11.718;2023-02-26T09:22:05;1.90;;;1.38;;
25391;SDS011;13329;48.402;11.718;2023-02-26T09:24:30;3.53;;;1.20;;
25391;SDS011;13329;48.402;11.718;2023-02-26T09:26:55;2.87;;;1.20;;
25391;SDS011;13329;48.402;11.718;2023-02-26T09:29:20;3.67;;;1.38;;
25391;SDS011;13329;48.402;11.718;2023-02-26T09:31:45;1.00;;;0.90;;
25391;SDS011;13329;48.402;11.718;2023-02-26T09:34:11;2.63;;;1.10;;
25391;SDS011;13329;48.402;11.718;2023-02-26T09:36:37;1.48;;;1.17;;
25391;SDS011;13329;48.402;11.718;2023-02-26T09:39:03;1.33;;;1.20;;
25391;SDS011;13329;48.402;11.718;2023-02-26T09:41:29;2.20;;;1.00;;
25391;SDS011;13329;48.402;11.718;2023-02-26T09:46:41;1.48;;;0.93;;
25391;SDS011;13329;48.402;11.718;2023-02-26T09:51:36;2.53;;;1.15;;
25391;SDS011;13329;48.402;11.718;2023-02-26T09:54:05;1.67;;;1.23;;
25391;SDS011;13329;48.402;11.718;2023-02-26T09:56:36;1.30;;;1.05;;
25391;SDS011;13329;48.402;11.718;2023-02-26T09:59:01;2.22;;;1.13;;
25391;SDS011;13329;48.402;11.718;2023-02-26T10:01:45;1.23;;;0.80;;
25391;SDS011;13329;48.402;11.718;2023-02-26T10:12:19;2.60;;;1.38;;
25391;SDS011;13329;48.402;11.718;2023-02-26T10:14:37;1.85;;;1.00;;
25391;SDS011;13329;48.402;11.718;2023-02-26T10:17:23;1.45;;;1.08;;
25391;SDS011;13329;48.402;11.718;2023-02-26T10:19:52;1.15;;;0.93;;
25391;SDS011;13329;48.402;11.718;2023-02-26T10:25:12;0.70;;;0.70;;
25391;SDS011;13329;48.402;11.718;2023-02-26T10:27:41;1.00;;;0.90;;
25391;SDS011;13329;48.402;11.718;2023-02-26T10:30:13;1.70;;;1.10;;
25391;SDS011;13329;48.402;11.718;2023-02-26T10:32:49;1.43;;;0.90;;
25391;SDS011;13329;48.402;11.718;2023-02-26T10:35:17;1.00;;;0.80;;
25391;SDS011;13329;48.402;11.718;2023-02-26T10:42:49;1.27;;;0.80;;
25391;SDS011;13329;48.402;11.718;2023-02-26T10:46:18;0.80;;;0.68;;
25391;SDS011;13329;48.402;11.718;2023-02-26T10:50:37;2.20;;;1.00;;
25391;SDS011;13329;48.402;11.718;2023-02-26T10:53:03;2.90;;;1.10;;
25391;SDS011;13329;48.402;11.718;2023-02-26T10:58:10;5.75;;;1.40;;
25391;SDS011;13329;48.402;11.718;2023-02-26T11:00:36;1.73;;;0.98;;
25391;SDS011;13329;48.402;11.718;2023-02-26T11:03:02;1.00;;;0.68;;
25391;SDS011;13329;48.402;11.718;2023-02-26T11:05:28;1.27;;;1.10;;
25391;SDS011;13329;48.402;11.718;2023-02-26T11:07:56;1.33;;;0.93;;
25391;SDS011;13329;48.402;11.718;2023-02-26T11:10:24;1.98;;;1.00;;
25391;SDS011;13329;48.402;11.718;2023-02-26T11:12:51;1.65;;;0.80;;
25391;SDS011;13329;48.402;11.718;2023-02-26T11:15:21;1.02;;;0.70;;
25391;SDS011;13329;48.402;11.718;2023-02-26T11:17:47;0.70;;;0.70;;
25391;SDS011;13329;48.402;11.718;2023-02-26T11:22:39;1.27;;;0.80;;
25391;SDS011;13329;48.402;11.718;2023-02-26T11:25:10;0.90;;;0.65;;
25391;SDS011;13329;48.402;11.718;2023-02-26T11:27:37;1.08;;;0.85;;
25391;SDS011;13329;48.402;11.718;2023-02-26T11:30:04;0.77;;;0.63;;
25391;SDS011;13329;48.402;11.718;2023-02-26T11:32:32;1.40;;;1.00;;
25391;SDS011;13329;48.402;11.718;2023-02-26T11:34:57;0.85;;;0.73;;
25391;SDS011;13329;48.402;11.718;2023-02-26T11:37:23;0.63;;;0.63;;
25391;SDS011;13329;48.402;11.718;2023-02-26T11:39:54;1.38;;;1.00;;
25391;SDS011;13329;48.402;11.718;2023-02-26T11:42:20;3.50;;;0.80;;
25391;SDS011;13329;48.402;11.718;2023-02-26T11:44:45;1.33;;;1.10;;
25391;SDS011;13329;48.402;11.718;2023-02-26T11:47:15;1.02;;;0.93;;
25391;SDS011;13329;48.402;11.718;2023-02-26T11:49:42;1.25;;;0.93;;
25391;SDS011;13329;48.402;11.718;2023-02-26T11:54:34;0.90;;;0.73;;
25391;SDS011;13329;48.402;11.718;2023-02-26T11:57:00;1.60;;;0.80;;
25391;SDS011;13329;48.402;11.718;2023-02-26T11:59:25;0.75;;;0.70;;
25391;SDS011;13329;48.402;11.718;2023-02-26T12:01:51;1.50;;;0.70;;
25391;SDS011;13329;48.402;11.718;2023-02-26T12:04:21;0.70;;;0.70;;
25391;SDS011;13329;48.402;11.718;2023-02-26T12:06:48;1.55;;;0.70;;
25391;SDS011;13329;48.402;11.718;2023-02-26T12:09:13;0.75;;;0.63;;
25391;SDS011;13329;48.402;11.718;2023-02-26T12:11:44;0.80;;;0.73;;
25391;SDS011;13329;48.402;11.718;2023-02-26T12:16:38;1.38;;;0.73;;
25391;SDS011;13329;48.402;11.718;2023-02-26T12:19:09;1.13;;;0.68;;
25391;SDS011;13329;48.402;11.718;2023-02-26T12:24:56;1.20;;;1.02;;
25391;SDS011;13329;48.402;11.718;2023-02-26T12:30:01;1.13;;;0.80;;
25391;SDS011;13329;48.402;11.718;2023-02-26T12:32:43;1.02;;;0.90;;
25391;SDS011;13329;48.402;11.718;2023-02-26T12:43:09;1.60;;;1.27;;
25391;SDS011;13329;48.402;11.718;2023-02-26T12:50:53;1.35;;;0.88;;
25391;SDS011;13329;48.402;11.718;2023-02-26T12:58:29;1.95;;;1.25;;
25391;SDS011;13329;48.402;11.718;2023-02-26T13:03:52;3.53;;;1.70;;
25391;SDS011;13329;48.402;11.718;2023-02-26T13:11:49;4.15;;;1.40;;
25391;SDS011;13329;48.402;11.718;2023-02-26T13:14:22;2.33;;;1.30;;
25391;SDS011;13329;48.402;11.718;2023-02-26T13:19:27;3.03;;;1.40;;
25391;SDS011;13329;48.402;11.718;2023-02-26T13:21:56;2.65;;;1.63;;
25391;SDS011;13329;48.402;11.718;2023-02-26T13:24:23;1.85;;;1.10;;
25391;SDS011;13329;48.402;11.718;2023-02-26T13:26:50;2.03;;;1.27;;
25391;SDS011;13329;48.402;11.718;2023-02-26T13:29:18;1.92;;;1.15;;
25391;SDS011;13329;48.402;11.718;2023-02-26T13:31:58;2.67;;;1.77;;
25391;SDS011;13329;48.402;11.718;2023-02-26T13:39:51;7.22;;;1.95;;
25391;SDS011;13329;48.402;11.718;2023-02-26T13:42:33;4.03;;;1.13;;
25391;SDS011;13329;48.402;11.718;2023-02-26T13:45:12;2.60;;;1.40;;
25391;SDS011;13329;48.402;11.718;2023-02-26T13:47:53;2.38;;;1.70;;
25391;SDS011;13329;48.402;11.718;2023-02-26T13:50:27;1.60;;;1.15;;
25391;SDS011;13329;48.402;11.718;2023-02-26T13:55:40;1.70;;;0.80;;
25391;SDS011;13329;48.402;11.718;2023-02-26T14:01:17;2.55;;;1.10;;
25391;SDS011;13329;48.402;11.718;2023-02-26T14:03:49;2.78;;;1.10;;
25391;SDS011;13329;48.402;11.718;2023-02-26T14:09:01;2.50;;;1.00;;
25391;SDS011;13329;48.402;11.718;2023-02-26T14:14:29;2.88;;;1.73;;
25391;SDS011;13329;48.402;11.718;2023-02-26T14:24:38;0.73;;;0.70;;
25391;SDS011;13329;48.402;11.718;2023-02-26T14:29:42;1.85;;;1.08;;
25391;SDS011;13329;48.402;11.718;2023-02-26T14:34:36;2.58;;;1.70;;
25391;SDS011;13329;48.402;11.718;2023-02-26T14:37:07;1.40;;;1.10;;
25391;SDS011;13329;48.402;11.718;2023-02-26T14:39:40;1.02;;;0.80;;
25391;SDS011;13329;48.402;11.718;2023-02-26T14:42:09;1.02;;;0.90;;
25391;SDS011;13329;48.402;11.718;2023-02-26T14:44:42;2.38;;;0.80;;
25391;SDS011;13329;48.402;11.718;2023-02-26T14:47:08;2.05;;;0.80;;
25391;SDS011;13329;48.402;11.718;2023-02-26T14:49:37;1.85;;;0.85;;
25391;SDS011;13329;48.402;11.718;2023-02-26T14:52:12;1.20;;;0.60;;
25391;SDS011;13329;48.402;11.718;2023-02-26T14:54:49;3.05;;;0.65;;
25391;SDS011;13329;48.402;11.718;2023-02-26T14:57:21;2.10;;;0.93;;
25391;SDS011;13329;48.402;11.718;2023-02-26T15:02:31;0.73;;;0.73;;
25391;SDS011;13329;48.402;11.718;2023-02-26T15:10:12;1.67;;;1.02;;
25391;SDS011;13329;48.402;11.718;2023-02-26T15:15:22;2.25;;;0.80;;
25391;SDS011;13329;48.402;11.718;2023-02-26T15:17:57;1.20;;;0.75;;
25391;SDS011;13329;48.402;11.718;2023-02-26T15:20:34;1.60;;;0.90;;
25391;SDS011;13329;48.402;11.718;2023-02-26T15:25:41;2.83;;;1.23;;
25391;SDS011;13329;48.402;11.718;2023-02-26T15:28:12;2.22;;;0.90;;
25391;SDS011;13329;48.402;11.718;2023-02-26T15:30:39;1.40;;;1.00;;
25391;SDS011;13329;48.402;11.718;2023-02-26T15:33:09;1.98;;;1.00;;
25391;SDS011;13329;48.402;11.718;2023-02-26T15:35:36;2.10;;;0.90;;
25391;SDS011;13329;48.402;11.718;2023-02-26T15:38:01;1.33;;;0.77;;
25391;SDS011;13329;48.402;11.718;2023-02-26T15:40:29;0.77;;;0.77;;
25391;SDS011;13329;48.402;11.718;2023-02-26T15:42:56;1.20;;;0.75;;
25391;SDS011;13329;48.402;11.718;2023-02-26T15:45:26;2.47;;;0.80;;
25391;SDS011;13329;48.402;11.718;2023-02-26T15:47:55;0.93;;;0.60;;
25391;SDS011;13329;48.402;11.718;2023-02-26T15:50:23;0.70;;;0.63;;
25391;SDS011;13329;48.402;11.718;2023-02-26T15:52:50;2.80;;;0.90;;
25391;SDS011;13329;48.402;11.718;2023-02-26T15:55:17;2.67;;;0.90;;
25391;SDS011;13329;48.402;11.718;2023-02-26T15:57:43;2.42;;;1.10;;
25391;SDS011;13329;48.402;11.718;2023-02-26T16:00:12;2.27;;;1.30;;
25391;SDS011;13329;48.402;11.718;2023-02-26T16:02:40;2.40;;;1.10;;
25391;SDS011;13329;48.402;11.718;2023-02-26T16:05:06;3.92;;;1.30;;
25391;SDS011;13329;48.402;11.718;2023-02-26T16:07:31;1.77;;;0.60;;
25391;SDS011;13329;48.402;11.718;2023-02-26T16:10:02;1.20;;;0.70;;
25391;SDS011;13329;48.402;11.718;2023-02-26T16:12:35;0.52;;;0.52;;
25391;SDS011;13329;48.402;11.718;2023-02-26T16:15:03;1.52;;;0.70;;
25391;SDS011;13329;48.402;11.718;2023-02-26T16:17:30;0.70;;;0.63;;
25391;SDS011;13329;48.402;11.718;2023-02-26T16:19:57;0.98;;;0.75;;
25391;SDS011;13329;48.402;11.718;2023-02-26T16:24:58;1.92;;;1.13;;
25391;SDS011;13329;48.402;11.718;2023-02-26T16:27:25;4.20;;;1.20;;
25391;SDS011;13329;48.402;11.718;2023-02-26T16:29:51;2.67;;;1.13;;
25391;SDS011;13329;48.402;11.718;2023-02-26T16:32:17;2.42;;;1.25;;
25391;SDS011;13329;48.402;11.718;2023-02-26T16:34:48;1.75;;;1.13;;
25391;SDS011;13329;48.402;11.718;2023-02-26T16:39:51;1.35;;;1.00;;
25391;SDS011;13329;48.402;11.718;2023-02-26T16:42:20;3.78;;;2.08;;
25391;SDS011;13329;48.402;11.718;2023-02-26T16:44:47;2.10;;;1.42;;
25391;SDS011;13329;48.402;11.718;2023-02-26T16:47:13;2.33;;;1.50;;
25391;SDS011;13329;48.402;11.718;2023-02-26T16:49:39;5.28;;;1.75;;
25391;SDS011;13329;48.402;11.718;2023-02-26T16:52:05;3.30;;;1.98;;
25391;SDS011;13329;48.402;11.718;2023-02-26T16:54:32;4.32;;;2.33;;
25391;SDS011;13329;48.402;11.718;2023-02-26T16:57:05;7.07;;;2.88;;
25391;SDS011;13329;48.402;11.718;2023-02-26T16:59:32;3.67;;;1.90;;
25391;SDS011;13329;48.402;11.718;2023-02-26T17:01:59;7.30;;;3.10;;